Time;durP1;ratioP1;P1;durP2;ratioP2;P2;SDS_P1;SDS_P2;PMS_P1;PMS_P2;Temp;Humidity;BMP_temperature;BMP_pressure;BME280_temperature;BME280_humidity;BME280_pressure;Samples;Min_cycle;Max_cycle;Signal;HPM_P1;HPM_P2
2022/07/27 00:01:15;;;;;;;3.15;2.37;;;;;;;20.90;55.15;99186.65;1704556;82;21558;-68
2022/07/27 00:03:43;;;;;;;2.42;2.22;;;;;;;20.91;54.96;99183.00;1689932;82;21449;-67
2022/07/27 00:06:33;;;;;;;2.40;2.20;;;;;;;20.92;54.84;99175.32;1680423;84;21017;-67
2022/07/27 00:09:00;;;;;;;6.50;2.40;;;;;;;20.91;55.04;99181.67;1607672;87;21546;-67
2022/07/27 00:11:28;;;;;;;3.80;2.20;;;;;;;20.92;54.87;99177.16;1587219;88;21427;-67
2022/07/27 00:13:55;;;;;;;3.17;2.87;;;;;;;20.92;54.68;99168.64;1640893;86;21600;-67
2022/07/27 00:16:21;;;;;;;2.75;2.55;;;;;;;20.96;54.88;99175.41;1641227;85;21533;-68
2022/07/27 00:18:48;;;;;;;3.83;2.90;;;;;;;21.00;54.94;99177.27;1623109;85;21444;-67
2022/07/27 00:21:16;;;;;;;2.87;2.58;;;;;;;21.00;54.97;99180.81;1627040;85;21538;-67
2022/07/27 00:23:43;;;;;;;3.22;2.50;;;;;;;21.02;54.71;99178.00;1634531;85;21769;-67
2022/07/27 00:26:10;;;;;;;3.00;2.42;;;;;;;21.11;54.44;99179.78;1640380;86;21656;-67
2022/07/27 00:28:36;;;;;;;3.08;2.80;;;;;;;21.15;54.22;99181.20;1628487;85;21774;-67
2022/07/27 00:31:03;;;;;;;2.95;2.60;;;;;;;21.15;54.42;99173.19;1632446;86;21588;-67
2022/07/27 00:33:30;;;;;;;2.55;2.35;;;;;;;21.14;54.54;99178.17;1642964;84;21607;-68
2022/07/27 00:35:57;;;;;;;3.52;2.40;;;;;;;21.13;54.55;99172.96;1683979;84;21825;-67
2022/07/27 00:38:24;;;;;;;5.10;2.55;;;;;;;21.09;54.82;99175.08;1674985;84;21513;-68
2022/07/27 00:40:52;;;;;;;2.87;2.55;;;;;;;21.11;54.64;99181.62;1676721;83;20986;-68
2022/07/27 00:43:20;;;;;;;2.92;2.40;;;;;;;21.13;54.57;99175.63;1661292;83;21616;-68
2022/07/27 00:45:47;;;;;;;5.30;2.50;;;;;;;21.16;54.42;99182.04;1693485;82;21421;-67
2022/07/27 00:48:13;;;;;;;3.67;2.75;;;;;;;21.18;54.32;99175.55;1663727;84;21875;-67
2022/07/27 00:50:41;;;;;;;3.60;2.47;;;;;;;21.22;54.18;99176.11;1682719;83;21552;-67
2022/07/27 00:53:09;;;;;;;;;;;;;;;21.24;54.30;99174.12;1685222;83;21002;-66
2022/07/27 00:55:36;;;;;;;2.77;2.58;;;;;;;21.22;54.46;99170.76;1703467;83;20427;-67
2022/07/27 00:58:07;;;;;;;3.08;2.30;;;;;;;21.19;54.48;99171.90;1664749;84;21525;-67
2022/07/27 01:00:36;;;;;;;4.65;2.60;;;;;;;21.18;54.48;99173.38;1670114;83;21818;-68
2022/07/27 01:03:03;;;;;;;;;;;;;;;21.16;54.48;99180.70;1681420;82;21488;-67
2022/07/27 01:05:30;;;;;;;4.42;2.72;;;;;;;21.13;54.94;99177.80;1705533;82;20457;-68
2022/07/27 01:07:57;;;;;;;4.08;3.02;;;;;;;21.07;54.86;99177.55;1662475;83;21475;-67
2022/07/27 01:10:24;;;;;;;2.98;2.50;;;;;;;21.04;54.79;99171.15;1684697;82;21619;-67
2022/07/27 01:12:51;;;;;;;3.47;2.60;;;;;;;21.08;54.58;99172.54;1692054;83;21922;-67
2022/07/27 01:15:18;;;;;;;3.52;2.35;;;;;;;21.09;54.61;99179.08;1670823;84;21446;-68
2022/07/27 01:17:47;;;;;;;3.77;2.77;;;;;;;21.07;54.95;99167.70;1683599;83;21563;-66
2022/07/27 01:20:14;;;;;;;6.95;2.95;;;;;;;21.07;54.95;99167.70;1689402;82;21620;-67
2022/07/27 01:22:40;;;;;;;3.43;2.97;;;;;;;21.06;54.74;99167.84;1695997;82;21537;-67
2022/07/27 01:25:08;;;;;;;4.65;2.83;;;;;;;21.09;54.85;99166.22;1681970;83;22246;-67
2022/07/27 01:27:35;;;;;;;;;;;;;;;21.05;54.81;99165.67;1684359;82;21545;-67
2022/07/27 01:30:25;;;;;;;5.10;2.70;;;;;;;21.12;54.93;99174.80;1696255;82;20474;-67
2022/07/27 01:32:32;;;;;;;2.80;2.60;;;;;;;21.12;54.84;99171.29;1681791;83;21037;-67
2022/07/27 01:34:59;;;;;;;3.30;3.00;;;;;;;21.08;54.99;99178.75;1672080;84;21558;-67
2022/07/27 01:37:26;;;;;;;3.00;2.80;;;;;;;21.07;55.10;99173.05;1691465;82;21844;-67
2022/07/27 01:39:53;;;;;;;3.05;2.85;;;;;;;21.05;55.09;99169.67;1693824;83;21526;-66
2022/07/27 01:42:20;;;;;;;2.98;2.67;;;;;;;21.06;55.03;99174.52;1687226;83;21643;-67
2022/07/27 01:44:47;;;;;;;3.87;2.70;;;;;;;21.04;55.06;99171.15;1677743;83;21660;-67
2022/07/27 01:47:13;;;;;;;5.58;2.40;;;;;;;21.03;54.99;99168.98;1695054;83;21553;-67
2022/07/27 01:49:40;;;;;;;2.80;2.55;;;;;;;21.07;54.98;99168.20;1668134;84;21884;-67
2022/07/27 01:52:08;;;;;;;5.30;2.60;;;;;;;21.06;54.61;99162.49;1681660;83;21001;-67
2022/07/27 01:54:35;;;;;;;3.60;2.58;;;;;;;21.06;54.61;99162.49;1676799;82;21509;-67
2022/07/27 01:57:01;;;;;;;4.65;2.77;;;;;;;21.08;55.16;99167.20;1691756;83;21482;-67
2022/07/27 01:59:28;;;;;;;4.28;2.85;;;;;;;21.09;54.98;99171.57;1678764;83;21497;-67
2022/07/27 02:01:55;;;;;;;7.05;2.85;;;;;;;21.08;54.95;99164.05;1669362;84;22047;-67
2022/07/27 02:04:23;;;;;;;4.87;3.10;;;;;;;21.06;55.02;99164.70;1684823;83;21530;-67
2022/07/27 02:08:58;;;;;;;9.35;2.75;;;;;;;20.40;57.74;99180.95;1792564;78;23157;-66
2022/07/27 02:14:10;;;;;;;5.37;2.83;;;;;;;20.82;56.02;99173.67;1760987;80;21792;-69
2022/07/27 02:16:36;;;;;;;5.10;2.80;;;;;;;20.78;56.08;99179.79;1767315;79;21425;-66
2022/07/27 02:19:03;;;;;;;6.03;2.70;;;;;;;20.75;56.17;99174.72;1756412;80;21534;-65
2022/07/27 02:21:30;;;;;;;9.78;3.05;;;;;;;20.71;56.33;99176.00;1769446;80;21082;-66
2022/07/27 02:23:57;;;;;;;3.65;2.52;;;;;;;20.71;56.26;99178.66;1763065;80;21687;-63
2022/07/27 02:26:23;;;;;;;4.30;2.83;;;;;;;20.69;56.29;99178.80;1774967;79;21875;-63
2022/07/27 02:28:50;;;;;;;3.43;2.90;;;;;;;20.70;56.27;99178.30;1775913;79;21587;-62
2022/07/27 02:31:17;;;;;;;3.87;2.98;;;;;;;20.66;56.39;99183.08;1766084;79;21100;-62
2022/07/27 02:33:45;;;;;;;6.53;2.90;;;;;;;20.66;56.39;99183.08;1770077;80;21459;-62
2022/07/27 02:36:11;;;;;;;8.08;3.40;;;;;;;20.64;56.59;99174.87;1763046;80;21481;-62
2022/07/27 02:38:39;;;;;;;4.53;3.08;;;;;;;20.63;56.84;99178.04;1768327;80;21938;-62
2022/07/27 02:41:06;;;;;;;6.35;3.10;;;;;;;20.63;56.78;99177.20;1763565;80;26982;-62
2022/07/27 02:43:33;;;;;;;6.20;3.83;;;;;;;20.68;56.69;99186.95;1760251;80;21441;-62
2022/07/27 02:45:59;;;;;;;7.12;2.87;;;;;;;20.69;56.72;99178.80;1770386;79;21504;-61
2022/07/27 02:48:26;;;;;;;7.35;3.52;;;;;;;20.73;56.59;99182.88;1762304;80;21530;-62
2022/07/27 02:50:52;;;;;;;7.42;3.65;;;;;;;20.79;56.59;99187.67;1768250;79;22231;-62
2022/07/27 02:53:19;;;;;;;5.33;3.40;;;;;;;20.80;56.77;99186.66;1757378;80;21202;-62
2022/07/27 02:55:46;;;;;;;4.97;3.58;;;;;;;20.78;56.66;99188.64;1760415;80;21434;-62
2022/07/27 02:58:12;;;;;;;3.92;3.12;;;;;;;20.85;56.41;99190.73;1767871;79;21010;-61
2022/07/27 03:00:39;;;;;;;4.33;3.30;;;;;;;20.86;56.43;99189.77;1768446;80;21494;-61
2022/07/27 03:03:06;;;;;;;4.67;3.27;;;;;;;20.89;56.46;99191.66;1771301;80;21408;-61
2022/07/27 03:05:33;;;;;;;4.50;3.17;;;;;;;20.92;56.39;99193.19;1774793;80;21430;-62
2022/07/27 03:08:02;;;;;;;3.58;2.90;;;;;;;20.88;56.36;99189.95;1757561;80;21408;-64
2022/07/27 03:10:29;;;;;;;3.47;3.17;;;;;;;20.91;56.38;99190.19;1747473;80;21759;-62
2022/07/27 03:12:57;;;;;;;3.17;2.90;;;;;;;20.96;56.33;99195.45;1760808;80;21076;-62
2022/07/27 03:15:24;;;;;;;6.53;3.20;;;;;;;20.96;56.30;99193.25;1756992;80;21845;-61
2022/07/27 03:17:50;;;;;;;3.47;2.63;;;;;;;21.00;56.35;99190.63;1762585;80;21488;-62
2022/07/27 03:20:17;;;;;;;2.80;2.60;;;;;;;21.03;56.25;99191.70;1741727;80;21424;-62
2022/07/27 03:22:44;;;;;;;3.20;2.70;;;;;;;21.08;56.18;99189.91;1746678;80;21509;-61
2022/07/27 03:25:11;;;;;;;3.05;2.75;;;;;;;21.09;56.22;99188.94;1745315;80;21132;-61
2022/07/27 03:27:38;;;;;;;4.70;2.70;;;;;;;21.11;56.28;99192.31;1741774;80;21426;-62
2022/07/27 03:30:06;;;;;;;2.65;2.45;;;;;;;21.06;56.40;99191.89;1747929;80;21479;-62
2022/07/27 03:32:33;;;;;;;2.98;2.60;;;;;;;21.04;56.49;99191.20;1760633;80;21434;-62
2022/07/27 03:35:00;;;;;;;4.22;3.20;;;;;;;21.03;56.49;99190.86;1738799;80;21494;-62
2022/07/27 03:37:26;;;;;;;4.92;3.17;;;;;;;21.05;56.53;99192.39;1756286;80;21536;-62
2022/07/27 03:39:53;;;;;;;9.10;3.55;;;;;;;21.09;56.42;99194.28;1752369;80;21519;-62
2022/07/27 03:42:20;;;;;;;3.67;3.37;;;;;;;21.10;56.51;99194.15;1754402;80;21548;-62
2022/07/27 03:44:46;;;;;;;4.05;2.95;;;;;;;21.14;56.61;99195.54;1760076;80;21483;-64
2022/07/27 03:47:13;;;;;;;4.28;2.85;;;;;;;21.22;56.54;99188.63;1746092;80;21509;-62
2022/07/27 03:49:41;;;;;;;2.98;2.77;;;;;;;21.31;56.34;99195.28;1765637;79;21474;-62
2022/07/27 03:52:07;;;;;;;;;;;;;;;21.37;56.26;99187.17;1758822;80;21835;-62
2022/07/27 03:54:34;;;;;;;4.60;2.70;;;;;;;21.51;56.52;99193.91;1752355;80;20184;-62
2022/07/27 03:57:01;;;;;;;3.10;2.80;;;;;;;21.69;55.58;99187.30;1752801;80;21499;-62
2022/07/27 03:59:28;;;;;;;4.03;2.80;;;;;;;21.69;55.58;99187.30;1757360;80;21545;-62
2022/07/27 04:01:55;;;;;;;3.67;2.83;;;;;;;21.82;55.68;99191.81;1740582;80;26974;-61
2022/07/27 04:04:23;;;;;;;3.47;2.77;;;;;;;21.92;55.49;99197.94;1759495;80;21912;-63
2022/07/27 04:06:51;;;;;;;8.33;3.12;;;;;;;22.12;54.84;99192.48;1739925;80;21530;-63
2022/07/27 04:09:19;;;;;;;3.25;2.60;;;;;;;22.12;54.84;99192.48;1683541;83;21497;-63
2022/07/27 04:11:47;;;;;;;2.52;2.33;;;;;;;22.23;55.02;99187.42;1710904;83;20967;-63
2022/07/27 04:14:14;;;;;;;4.17;2.60;;;;;;;22.31;54.75;99184.34;1709625;82;21003;-64
2022/07/27 04:16:42;;;;;;;3.05;2.60;;;;;;;22.43;54.60;99179.59;1711357;82;21833;-64
2022/07/27 04:19:09;;;;;;;3.05;2.65;;;;;;;22.63;54.49;99179.45;1712524;82;21474;-64
2022/07/27 04:21:36;;;;;;;2.83;2.47;;;;;;;22.63;54.49;99179.45;1705991;82;21520;-65
2022/07/27 04:24:05;;;;;;;2.60;2.40;;;;;;;22.78;54.34;99182.43;1713389;82;21497;-63
2022/07/27 04:26:33;;;;;;;5.42;2.50;;;;;;;22.88;54.02;99187.19;1704413;83;21058;-64
2022/07/27 04:29:00;;;;;;;2.65;2.40;;;;;;;22.99;53.71;99189.62;1708567;83;21837;-65
2022/07/27 04:31:26;;;;;;;8.80;2.72;;;;;;;23.03;53.30;99181.63;1711235;83;21478;-64
2022/07/27 04:33:53;;;;;;;4.10;2.40;;;;;;;23.14;53.63;99177.86;1710826;82;20987;-65
2022/07/27 04:36:19;;;;;;;6.30;2.63;;;;;;;23.27;53.47;99190.34;1711947;82;21567;-64
2022/07/27 04:38:46;;;;;;;4.13;2.97;;;;;;;23.39;53.14;99186.05;1706932;82;21435;-64
2022/07/27 04:41:13;;;;;;;3.12;2.58;;;;;;;23.51;52.64;99182.94;1704481;82;21460;-64
2022/07/27 04:43:39;;;;;;;2.50;2.30;;;;;;;23.58;52.32;99183.63;1713504;82;21405;-64
2022/07/27 04:46:06;;;;;;;6.35;2.70;;;;;;;23.82;52.23;99182.42;1712801;82;21461;-64
2022/07/27 04:48:33;;;;;;;4.80;2.92;;;;;;;23.82;52.23;99182.42;1705353;82;21681;-65
2022/07/27 04:51:03;;;;;;;3.20;2.02;;;;;;;23.94;52.01;99182.98;1709948;82;21157;-66
2022/07/27 04:53:30;;;;;;;6.25;2.33;;;;;;;24.14;51.79;99180.84;1697108;83;22059;-63
2022/07/27 04:55:56;;;;;;;4.35;2.60;;;;;;;24.14;51.79;99180.84;1712983;82;21615;-63
2022/07/27 04:58:24;;;;;;;2.30;2.10;;;;;;;24.27;51.83;99184.41;1714361;82;21501;-64
2022/07/27 05:00:51;;;;;;;4.65;2.22;;;;;;;24.36;51.58;99184.77;1710638;82;21531;-64
2022/07/27 05:03:17;;;;;;;3.87;2.10;;;;;;;24.47;51.06;99181.75;1712298;82;21420;-64
2022/07/27 05:05:45;;;;;;;4.42;2.37;;;;;;;24.58;50.93;99177.08;1711753;82;21439;-64
2022/07/27 05:08:12;;;;;;;3.65;2.05;;;;;;;24.68;50.55;99178.60;1706979;82;21424;-65
2022/07/27 05:10:39;;;;;;;2.70;1.95;;;;;;;24.76;50.43;99181.80;1704218;83;21598;-65
2022/07/27 05:13:06;;;;;;;4.10;1.98;;;;;;;24.89;50.54;99184.48;1715573;82;21570;-64
2022/07/27 05:15:32;;;;;;;3.15;2.15;;;;;;;24.99;50.22;99184.63;1706540;83;21598;-64
2022/07/27 05:17:59;;;;;;;2.05;1.82;;;;;;;25.08;49.61;99193.53;1708386;82;21927;-64
2022/07/27 05:20:26;;;;;;;2.50;1.72;;;;;;;25.18;49.54;99187.45;1706742;82;21516;-65
2022/07/27 05:22:53;;;;;;;2.57;2.37;;;;;;;25.25;49.01;99183.11;1714415;82;21518;-64
2022/07/27 05:25:20;;;;;;;1.92;1.72;;;;;;;25.37;48.06;99178.23;1711294;82;21993;-63
2022/07/27 05:27:48;;;;;;;3.95;2.02;;;;;;;25.46;47.69;99176.33;1694601;82;21547;-65
2022/07/27 05:30:15;;;;;;;1.87;1.65;;;;;;;25.57;47.00;99178.65;1701306;82;21920;-66
2022/07/27 05:32:41;;;;;;;2.02;1.92;;;;;;;25.67;46.78;99182.48;1707655;82;21475;-64
2022/07/27 05:35:09;;;;;;;1.83;1.73;;;;;;;25.74;46.82;99189.36;1710738;82;21566;-64
2022/07/27 05:37:36;;;;;;;2.08;1.82;;;;;;;25.84;46.77;99187.29;1709078;82;26875;-67
2022/07/27 05:40:04;;;;;;;3.30;1.77;;;;;;;25.96;46.77;99189.14;1704793;82;21534;-64
2022/07/27 05:42:31;;;;;;;2.85;1.75;;;;;;;26.09;46.82;99189.41;1719684;82;21783;-62
2022/07/27 05:44:57;;;;;;;2.43;1.97;;;;;;;26.18;46.60;99187.00;1706508;82;21578;-67
2022/07/27 05:47:24;;;;;;;5.78;1.85;;;;;;;26.24;45.58;99185.45;1707983;82;21622;-66
2022/07/27 05:49:50;;;;;;;2.77;1.75;;;;;;;26.30;44.68;99183.38;1716240;82;21550;-66
2022/07/27 05:52:19;;;;;;;4.20;2.02;;;;;;;26.38;45.16;99196.79;1725337;82;21455;-69
2022/07/27 05:54:46;;;;;;;4.20;1.80;;;;;;;26.47;44.65;99191.36;1725449;80;21900;-67
2022/07/27 05:57:14;;;;;;;3.83;1.92;;;;;;;26.53;45.00;99194.16;1721332;80;21542;-66
2022/07/27 05:59:41;;;;;;;2.30;1.90;;;;;;;26.60;45.44;99199.72;1720994;80;21545;-63
2022/07/27 06:02:08;;;;;;;4.03;1.70;;;;;;;26.73;45.28;99204.00;1724283;82;21567;-63
2022/07/27 06:04:35;;;;;;;3.08;1.57;;;;;;;26.83;45.40;99202.91;1725823;81;27058;-63
2022/07/27 06:09:47;;;;;;;2.35;1.95;;;;;;;26.98;44.15;99193.83;1718704;82;21456;-62
2022/07/27 06:12:14;;;;;;;2.85;1.40;;;;;;;27.06;43.77;99201.52;1683942;83;21575;-63
2022/07/27 06:14:40;;;;;;;1.67;1.57;;;;;;;27.11;43.38;99201.30;1690142;84;21646;-65
2022/07/27 06:17:08;;;;;;;8.03;1.60;;;;;;;27.16;42.32;99198.04;1745601;80;21406;-62
2022/07/27 06:19:38;;;;;;;;;;;;;;;27.19;41.97;99194.47;1751346;80;21819;-62
2022/07/27 06:22:03;;;;;;;2.37;1.60;;;;;;;27.24;42.33;99200.68;1758930;80;20421;-64
2022/07/27 06:24:29;;;;;;;3.42;1.55;;;;;;;27.27;42.39;99194.09;1756495;80;21492;-63
2022/07/27 06:26:56;;;;;;;1.95;1.80;;;;;;;27.37;42.89;99194.69;1747669;80;21024;-64
2022/07/27 06:29:23;;;;;;;5.17;1.62;;;;;;;27.46;42.87;99196.76;1673978;83;27085;-63
2022/07/27 06:31:50;;;;;;;1.57;1.47;;;;;;;27.55;42.70;99191.08;1748350;80;21856;-67
2022/07/27 06:34:17;;;;;;;4.25;2.10;;;;;;;27.64;42.39;99197.75;1746004;80;21461;-66
2022/07/27 06:36:44;;;;;;;;;;;;;;;27.78;42.05;99192.83;1751970;80;21562;-66
2022/07/27 06:39:11;;;;;;;1.55;1.45;;;;;;;27.92;41.37;99193.89;1761208;80;20511;-66
2022/07/27 06:41:38;;;;;;;1.50;1.40;;;;;;;28.03;40.56;99192.55;1754107;80;27259;-65
2022/07/27 06:44:05;;;;;;;3.20;1.62;;;;;;;28.08;39.46;99187.42;1751318;80;21998;-66
2022/07/27 06:46:32;;;;;;;2.02;1.60;;;;;;;28.15;39.52;99189.69;1754159;80;21519;-66
2022/07/27 06:48:58;;;;;;;2.25;1.90;;;;;;;28.20;38.68;99189.10;1753886;80;21566;-65
2022/07/27 06:51:26;;;;;;;1.80;1.70;;;;;;;28.30;38.46;99195.88;1756494;80;20960;-66
2022/07/27 06:53:53;;;;;;;2.00;1.90;;;;;;;28.41;37.77;99192.37;1750452;80;21424;-67
2022/07/27 06:56:21;;;;;;;2.45;2.17;;;;;;;28.50;37.54;99182.58;1746597;80;22008;-66
2022/07/27 06:58:48;;;;;;;2.75;1.80;;;;;;;28.59;36.90;99179.25;1748847;80;21411;-65
2022/07/27 07:01:15;;;;;;;1.90;1.80;;;;;;;28.66;36.77;99173.39;1754435;80;21570;-67
2022/07/27 07:03:41;;;;;;;1.98;1.87;;;;;;;28.72;37.38;99175.84;1752285;80;21498;-67
2022/07/27 07:06:08;;;;;;;2.62;2.15;;;;;;;28.85;38.14;99180.53;1753369;80;21438;-68
2022/07/27 07:08:35;;;;;;;3.98;2.00;;;;;;;28.93;36.92;99177.67;1756795;79;22231;-68
2022/07/27 07:11:01;;;;;;;4.40;1.67;;;;;;;28.96;37.13;99173.23;1756655;80;21548;-68
2022/07/27 07:13:30;;;;;;;2.62;1.60;;;;;;;28.98;37.22;99178.45;1747762;80;21495;-69
2022/07/27 07:15:58;;;;;;;3.58;1.95;;;;;;;28.93;36.83;99172.26;1748851;80;21086;-68
2022/07/27 07:18:24;;;;;;;3.70;1.80;;;;;;;28.98;36.83;99177.10;1751666;80;21446;-68
2022/07/27 07:20:53;;;;;;;2.22;2.02;;;;;;;29.03;36.96;99172.77;1742428;80;21842;-67
2022/07/27 07:23:19;;;;;;;3.20;2.10;;;;;;;29.10;36.71;99175.51;1755419;80;21599;-67
2022/07/27 07:25:46;;;;;;;4.08;2.00;;;;;;;29.15;34.98;99173.61;1751908;80;21571;-67
2022/07/27 07:28:13;;;;;;;2.52;1.77;;;;;;;29.14;35.38;99175.49;1754914;80;21515;-67
2022/07/27 07:30:40;;;;;;;4.28;1.67;;;;;;;29.20;35.30;99181.98;1752381;80;21422;-66
2022/07/27 07:33:06;;;;;;;3.20;1.90;;;;;;;29.21;35.84;99179.58;1741261;80;21826;-67
2022/07/27 07:35:33;;;;;;;2.00;1.80;;;;;;;29.17;35.99;99175.61;1750332;80;21677;-68
2022/07/27 07:38:00;;;;;;;2.50;1.90;;;;;;;29.20;35.81;99176.57;1759283;80;21574;-68
2022/07/27 07:40:27;;;;;;;2.20;2.00;;;;;;;29.20;36.16;99178.75;1744342;80;21453;-68
2022/07/27 07:42:56;;;;;;;2.05;1.80;;;;;;;29.18;36.48;99182.18;1749378;80;21590;-67
2022/07/27 07:45:23;;;;;;;2.02;1.62;;;;;;;29.18;36.88;99175.91;1686907;83;22116;-67
2022/07/27 07:47:50;;;;;;;1.90;1.80;;;;;;;29.17;36.98;99180.49;1747305;80;21570;-66
2022/07/27 07:50:18;;;;;;;2.33;1.70;;;;;;;29.21;36.75;99182.29;1754582;80;27484;-67
2022/07/27 07:52:50;;;;;;;3.30;2.00;;;;;;;29.26;36.93;99183.37;1749746;80;21060;-66
2022/07/27 07:55:22;;;;;;;2.25;2.05;;;;;;;29.36;36.67;99173.53;1749793;80;21491;-66
2022/07/27 07:57:48;;;;;;;2.17;1.75;;;;;;;29.47;36.92;99179.75;1756672;80;21831;-67
2022/07/27 08:00:17;;;;;;;2.55;1.98;;;;;;;29.58;36.65;99176.17;1747859;80;21512;-67
2022/07/27 08:02:53;;;;;;;2.67;1.98;;;;;;;29.69;36.67;99176.44;1747065;80;21554;-67
2022/07/27 08:05:21;;;;;;;6.15;1.82;;;;;;;29.76;36.55;99177.87;1754128;80;21613;-67
2022/07/27 08:07:49;;;;;;;3.65;1.70;;;;;;;29.84;35.60;99173.62;1746672;80;21451;-67
2022/07/27 08:10:18;;;;;;;2.12;2.00;;;;;;;29.87;36.09;99177.26;1744217;80;21799;-68
2022/07/27 08:12:50;;;;;;;1.92;1.82;;;;;;;29.89;36.30;99180.63;1754790;80;21033;-66
2022/07/27 08:15:18;;;;;;;4.12;1.75;;;;;;;29.92;35.59;99177.20;1758853;80;21031;-66
2022/07/27 08:17:46;;;;;;;2.45;1.75;;;;;;;29.91;35.33;99179.05;1764319;80;21442;-67
2022/07/27 08:20:14;;;;;;;2.75;2.12;;;;;;;29.94;35.18;99180.01;1763971;80;21583;-68
2022/07/27 08:22:41;;;;;;;6.30;1.70;;;;;;;29.92;35.05;99178.55;1749470;80;21790;-67
2022/07/27 08:25:10;;;;;;;1.95;1.70;;;;;;;29.82;34.83;99175.70;1767039;80;21423;-67
2022/07/27 08:27:37;;;;;;;3.08;2.00;;;;;;;29.77;34.60;99176.81;1758970;80;25845;-67
2022/07/27 08:30:05;;;;;;;2.83;2.02;;;;;;;29.78;34.65;99177.14;1760343;80;27091;-67
2022/07/27 08:32:32;;;;;;;2.33;1.50;;;;;;;29.77;35.05;99177.34;1752281;80;21511;-68
2022/07/27 08:34:59;;;;;;;1.45;1.35;;;;;;;29.87;34.68;99173.20;1755340;80;21778;-66
2022/07/27 08:37:26;;;;;;;2.75;1.55;;;;;;;29.96;34.22;99164.38;1748320;80;21514;-66
2022/07/27 08:39:52;;;;;;;2.53;1.77;;;;;;;30.05;34.24;99165.05;1752781;80;21642;-66
2022/07/27 08:42:19;;;;;;;1.80;1.70;;;;;;;30.06;34.87;99174.33;1754065;80;21454;-67
2022/07/27 08:44:46;;;;;;;1.65;1.55;;;;;;;30.14;34.23;99166.53;1765791;80;20969;-68
2022/07/27 08:47:14;;;;;;;3.03;1.50;;;;;;;30.15;34.17;99168.19;1755235;80;21809;-68
2022/07/27 08:49:41;;;;;;;2.55;1.80;;;;;;;30.09;34.48;99167.66;1749314;80;21547;-68
2022/07/27 08:52:09;;;;;;;3.37;1.75;;;;;;;30.04;34.30;99159.30;1716044;82;21428;-69
2022/07/27 08:54:39;;;;;;;4.62;1.65;;;;;;;30.08;34.36;99161.91;1758008;80;21489;-70
2022/07/27 08:57:08;;;;;;;1.95;1.75;;;;;;;30.11;34.88;99159.33;1728379;81;20949;-71
2022/07/27 08:59:35;;;;;;;4.72;1.82;;;;;;;30.22;34.73;99164.16;1760183;79;21811;-69
2022/07/27 09:02:03;;;;;;;4.17;1.87;;;;;;;30.44;35.04;99171.61;1761709;80;21541;-68
2022/07/27 09:04:30;;;;;;;1.70;1.60;;;;;;;30.47;34.80;99171.21;1763650;80;21450;-68
2022/07/27 09:06:56;;;;;;;2.92;1.65;;;;;;;30.55;35.22;99172.89;1766690;80;21574;-69
2022/07/27 09:09:23;;;;;;;3.25;1.40;;;;;;;30.52;34.19;99163.83;1758258;80;21528;-67
2022/07/27 09:12:08;;;;;;;2.90;1.65;;;;;;;30.53;33.85;99169.02;1764777;80;22033;-68
2022/07/27 09:14:38;;;;;;;2.08;1.65;;;;;;;30.54;33.52;99172.06;1753849;80;21496;-69
2022/07/27 09:17:24;;;;;;;2.02;1.47;;;;;;;30.43;33.23;99168.60;1755959;80;21557;-70
2022/07/27 09:20:02;;;;;;;3.58;1.75;;;;;;;30.39;33.12;99169.53;1755232;80;21502;-65
2022/07/27 09:22:52;;;;;;;2.12;1.40;;;;;;;30.37;33.11;99169.44;1762157;79;21570;-67
2022/07/27 09:25:25;;;;;;;3.20;1.30;;;;;;;30.45;32.50;99169.23;1746651;80;21781;-67
2022/07/27 09:27:54;;;;;;;1.35;1.25;;;;;;;30.39;31.98;99168.70;1763149;80;21499;-67
2022/07/27 09:30:21;;;;;;;3.75;1.55;;;;;;;30.39;31.91;99163.28;1757182;80;21030;-65
2022/07/27 09:32:58;;;;;;;1.45;1.35;;;;;;;30.39;31.81;99169.53;1758324;79;21430;-68
2022/07/27 09:35:29;;;;;;;;;;;;;;;30.42;31.97;99164.20;1717250;81;21509;-66
2022/07/27 09:37:59;;;;;;;1.52;1.20;;;;;;;30.45;32.38;99163.28;1703251;82;20777;-67
2022/07/27 09:40:26;;;;;;;4.75;1.62;;;;;;;30.50;32.18;99157.75;1655211;82;21618;-70
2022/07/27 09:43:09;;;;;;;3.40;1.47;;;;;;;30.55;32.21;99166.94;1681058;83;21549;-68
2022/07/27 09:45:38;;;;;;;2.33;1.40;;;;;;;30.63;33.27;99172.71;1725158;81;21527;-69
2022/07/27 09:48:09;;;;;;;2.83;1.30;;;;;;;30.71;33.49;99172.50;1724271;81;20942;-71
2022/07/27 09:50:40;;;;;;;1.45;1.35;;;;;;;30.83;33.33;99175.41;1720929;81;21881;-63
2022/07/27 09:53:21;;;;;;;18.25;2.08;;;;;;;31.10;32.97;99174.06;1688965;82;21448;-60
2022/07/27 09:56:08;;;;;;;3.42;1.27;;;;;;;31.31;32.17;99169.77;1666957;84;21512;-60
2022/07/27 09:58:50;;;;;;;1.00;1.00;;;;;;;31.31;32.61;99168.41;1733258;81;22515;-59
2022/07/27 10:01:31;;;;;;;3.65;1.27;;;;;;;31.32;32.16;99174.67;1686947;83;21504;-62
2022/07/27 10:04:06;;;;;;;1.00;1.00;;;;;;;31.39;32.32;99161.39;1758336;80;21629;-61
2022/07/27 10:06:34;;;;;;;2.20;1.25;;;;;;;31.43;32.59;99164.52;1764579;80;21597;-59
2022/07/27 10:09:01;;;;;;;1.47;1.37;;;;;;;31.44;31.92;99171.63;1745030;80;21650;-60
2022/07/27 10:11:28;;;;;;;4.33;1.25;;;;;;;31.46;31.77;99169.53;1763742;80;21638;-60
2022/07/27 10:13:58;;;;;;;3.12;1.30;;;;;;;31.54;30.54;99172.03;1753892;80;21559;-60
2022/07/27 10:16:28;;;;;;;1.17;1.10;;;;;;;31.57;30.51;99170.27;1755851;80;21558;-59
2022/07/27 10:19:06;;;;;;;1.65;1.42;;;;;;;31.55;30.23;99172.36;1757937;80;21006;-59
2022/07/27 10:21:35;;;;;;;1.20;1.10;;;;;;;31.57;30.15;99166.69;1758262;80;21616;-59
2022/07/27 10:24:07;;;;;;;2.92;1.40;;;;;;;31.58;30.53;99161.58;1747074;80;21608;-61
2022/07/27 10:26:38;;;;;;;1.85;1.30;;;;;;;31.74;30.58;99163.83;1756679;80;21077;-59
2022/07/27 10:29:16;;;;;;;1.77;1.30;;;;;;;31.93;30.63;99162.58;1757745;80;20978;-59
2022/07/27 10:31:56;;;;;;;2.58;1.42;;;;;;;32.10;30.43;99158.36;1753019;80;21431;-60
2022/07/27 10:34:36;;;;;;;5.37;1.10;;;;;;;32.21;30.20;99160.89;1746721;80;21659;-60
2022/07/27 10:37:15;;;;;;;1.32;1.02;;;;;;;32.21;29.60;99158.17;1754642;80;21598;-62
2022/07/27 10:39:44;;;;;;;2.58;1.20;;;;;;;32.11;29.15;99160.02;1767115;80;21426;-62
2022/07/27 10:42:28;;;;;;;1.05;0.93;;;;;;;32.08;29.30;99156.89;1759487;80;21812;-62
2022/07/27 10:45:03;;;;;;;1.10;1.00;;;;;;;32.10;29.57;99158.86;1754807;80;21417;-63
2022/07/27 10:47:49;;;;;;;5.17;1.00;;;;;;;32.17;30.02;99161.03;1757908;80;21449;-63
2022/07/27 10:50:20;;;;;;;2.80;1.20;;;;;;;32.14;29.70;99158.23;1756187;80;21481;-64
2022/07/27 10:53:03;;;;;;;2.80;1.17;;;;;;;32.03;29.15;99158.91;1761646;80;20938;-62
2022/07/27 10:55:41;;;;;;;1.98;1.30;;;;;;;31.97;29.62;99163.84;1751238;80;21801;-62
2022/07/27 10:58:14;;;;;;;2.25;1.00;;;;;;;31.97;29.04;99172.82;1761769;80;21529;-61
2022/07/27 11:00:55;;;;;;;3.37;1.32;;;;;;;31.86;29.55;99167.23;1746078;80;21526;-62
2022/07/27 11:03:34;;;;;;;1.72;1.10;;;;;;;31.77;30.26;99177.50;1759396;79;21519;-62
2022/07/27 11:06:15;;;;;;;1.70;1.12;;;;;;;31.64;30.47;99174.30;1756553;80;21522;-61
2022/07/27 11:08:44;;;;;;;2.12;1.30;;;;;;;31.55;31.04;99175.58;1760577;80;21843;-62
2022/07/27 11:11:23;;;;;;;2.35;1.30;;;;;;;31.43;31.18;99187.07;1745501;80;20966;-62
2022/07/27 11:13:56;;;;;;;2.83;1.00;;;;;;;31.30;31.22;99187.63;1751665;80;21448;-63
2022/07/27 11:16:22;;;;;;;2.60;1.10;;;;;;;31.12;31.04;99178.27;1760404;80;21521;-62
2022/07/27 11:19:00;;;;;;;3.10;1.17;;;;;;;31.03;31.02;99186.31;1757103;80;21594;-62
2022/07/27 11:21:33;;;;;;;1.77;0.93;;;;;;;30.89;31.31;99181.35;1770258;80;21916;-63
2022/07/27 11:24:06;;;;;;;5.78;1.40;;;;;;;30.80;31.05;99182.63;1762673;80;21071;-62
2022/07/27 11:26:40;;;;;;;5.83;1.30;;;;;;;30.73;31.59;99183.14;1762946;80;21529;-63
2022/07/27 11:29:09;;;;;;;6.17;1.40;;;;;;;30.65;31.30;99178.23;1767194;80;21667;-67
2022/07/27 11:31:36;;;;;;;6.20;1.17;;;;;;;30.64;31.42;99185.21;1765152;80;21536;-62
2022/07/27 11:34:03;;;;;;;3.77;1.30;;;;;;;30.56;31.27;99178.64;1762827;80;21833;-62
2022/07/27 11:36:42;;;;;;;;;;;;;;;30.55;31.09;99178.31;1759847;80;21414;-61
2022/07/27 11:39:13;;;;;;;6.47;1.17;;;;;;;30.49;31.13;99186.75;1762791;80;20465;-63
2022/07/27 11:41:41;;;;;;;6.50;1.15;;;;;;;30.41;31.55;99185.60;1751254;80;21531;-62
2022/07/27 11:44:10;;;;;;;3.33;1.20;;;;;;;30.45;32.13;99181.44;1761456;80;21502;-64
2022/07/27 11:46:43;;;;;;;13.22;2.10;;;;;;;30.50;31.66;99180.80;1764588;80;21549;-63
2022/07/27 11:49:15;;;;;;;9.18;1.20;;;;;;;30.43;31.58;99188.94;1762643;80;21533;-62